Terminal Aerodrome Forecast
Issued by NWS La Crosse, WI

Home | Current Version | Previous Version | Text Only | Print | Product List | Glossary On
Versions: 1 2 3 4 5 6 7 8 9 10 11 12 13 14 15 16 17 18 19 20 21 22 23 24 25 26 27 28 29 30 31 32 33 34 35 36 37 38 39 40 41 42 43 44 45 46 47 48 49
000
FTUS43 KARX 201737
TAFLSE
TAF
KLSE 201737Z 2018/2118 VRB03KT P6SM FEW025 SCT200
     FM210300 10003KT P6SM VCSH BKN100
     FM210600 13004KT 6SM -SHRA BR VCTS BKN060CB
      TEMPO 2108/2112 3SM TSRA BR BKN040CB
     FM211500 16007KT P6SM -SHRA VCTS SCT040CB BKN080=

USA.gov is the U.S. government's official web portal to all federal, state and local government web resources and services.